Time;durP1;ratioP1;P1;durP2;ratioP2;P2;SDS_P1;SDS_P2;PMS_P1;PMS_P2;Temp;Humidity;BMP_temperature;BMP_pressure;BME280_temperature;BME280_humidity;BME280_pressure;Samples;Min_cycle;Max_cycle;Signal;HPM_P1;HPM_P2
2021/03/13 00:02:03;;;;;;;;;;;;;;;;;;;;;
2021/03/13 00:31:30;;;;;;;28.35;20.95;;;;;;;4.72;73.93;94293.86;834050;71;32725;-84
2021/03/13 00:46:51;;;;;;;30.02;19.67;;;;;;;4.67;74.05;94279.57;834598;71;32788;-85
2021/03/13 01:01:40;;;;;;;30.90;21.00;;;;;;;4.77;74.50;94280.12;832748;70;32839;-83
2021/03/13 01:16:31;;;;;;;32.10;21.93;;;;;;;4.83;74.44;94257.01;835839;70;32794;-82
2021/03/13 01:31:47;;;;;;;37.45;24.10;;;;;;;4.88;74.52;94236.20;829333;71;32839;-82
2021/03/13 01:46:24;;;;;;;34.03;22.62;;;;;;;4.88;74.71;94221.91;833871;71;33488;-81
2021/03/13 02:01:21;;;;;;;;;;;;;;;;;;;;;
2021/03/13 02:16:39;;;;;;;30.27;21.15;;;;;;;5.14;74.68;94226.61;829384;71;32771;-80
2021/03/13 02:31:25;;;;;;;;;;;;;;;;;;;;;
2021/03/13 03:31:50;;;;;;;37.55;25.30;;;;;;;5.11;75.98;94195.14;834051;71;32801;-81
2021/03/13 03:46:51;;;;;;;40.92;25.60;;;;;;;5.24;75.90;94202.96;808701;72;32800;-81
2021/03/13 04:01:42;;;;;;;37.28;23.83;;;;;;;5.26;75.87;94202.19;828410;71;32825;-79
2021/03/13 04:16:21;;;;;;;42.62;26.15;;;;;;;5.20;75.76;94218.30;834109;71;32774;-82
2021/03/13 04:46:47;;;;;;;36.88;26.60;;;;;;;4.86;76.10;94203.72;830543;69;32773;-80
2021/03/13 05:01:24;;;;;;;36.23;25.30;;;;;;;4.83;76.28;94193.86;828067;71;33466;-82
2021/03/13 05:31:45;;;;;;;44.03;30.17;;;;;;;5.16;75.39;94186.05;833966;71;33308;-80
2021/03/13 05:46:22;;;;;;;44.88;30.65;;;;;;;5.91;73.77;94245.29;829649;70;32389;-81
2021/03/13 06:01:33;;;;;;;84.07;49.18;;;;;;;5.98;73.59;94243.20;830973;71;32812;-81
2021/03/13 06:16:25;;;;;;;95.00;56.18;;;;;;;6.89;71.57;94250.38;834319;71;32719;-78
2021/03/13 06:31:12;;;;;;;82.75;56.55;;;;;;;9.42;65.91;94271.80;833812;71;29690;-76
2021/03/13 06:46:18;;;;;;;68.35;46.70;;;;;;;10.70;60.07;94281.93;833652;71;32728;-76
2021/03/13 07:01:28;;;;;;;57.10;40.63;;;;;;;9.92;60.50;123554.15;827454;71;33059;-78
2021/03/13 07:16:26;;;;;;;55.43;41.63;;;;;;;12.09;57.46;94299.36;828672;71;29765;-83
2021/03/13 07:31:22;;;;;;;42.03;33.02;;;;;;;13.82;50.85;94290.81;828803;71;32831;-78
2021/03/13 07:46:14;;;;;;;44.38;31.33;;;;;;;14.10;48.55;94291.78;827490;71;33240;-82
2021/03/13 08:01:12;;;;;;;37.75;28.95;;;;;;;14.22;46.60;94297.94;834563;71;30211;-84
2021/03/13 08:16:13;;;;;;;32.03;26.30;;;;;;;15.15;45.92;94305.33;831926;71;29772;-82
2021/03/13 08:31:29;;;;;;;30.40;25.60;;;;;;;16.13;41.92;94299.73;823752;71;32709;-84
2021/03/13 08:46:45;;;;;;;41.80;31.80;;;;;;;15.75;42.44;94309.95;835311;71;32702;-82
2021/03/13 09:01:39;;;;;;;48.90;39.03;;;;;;;15.60;42.77;94323.20;828969;71;32698;-83
2021/03/13 09:16:19;;;;;;;50.80;38.55;;;;;;;16.20;42.28;94319.28;828424;71;31720;-86
2021/03/13 09:31:15;;;;;;;49.77;38.02;;;;;;;16.04;43.18;94334.23;827573;71;31753;-86
2021/03/13 09:46:19;;;;;;;51.05;39.78;;;;;;;14.84;48.73;94327.55;831157;71;32793;-80
2021/03/13 10:01:11;;;;;;;53.25;38.85;;;;;;;14.14;47.93;94326.45;828269;71;29242;-79
2021/03/13 10:16:20;;;;;;;45.25;35.13;;;;;;;14.65;48.86;94313.98;827717;71;31992;-82
2021/03/13 10:31:11;;;;;;;42.80;31.73;;;;;;;16.16;45.88;94336.13;796173;73;28877;-83
2021/03/13 10:46:18;;;;;;;43.10;31.33;;;;;;;16.02;45.75;94338.52;829564;71;29334;-84
2021/03/13 11:01:31;;;;;;;40.65;29.32;;;;;;;15.90;45.17;94316.54;819765;71;31722;-87
2021/03/13 11:16:16;;;;;;;26.40;21.23;;;;;;;15.52;45.98;94328.02;829881;70;31765;-82
2021/03/13 11:31:11;;;;;;;24.18;19.32;;;;;;;15.63;47.51;94307.47;829057;71;29234;-78
2021/03/13 11:46:09;;;;;;;26.00;20.25;;;;;;;15.79;47.18;94293.13;834131;71;28747;-77
2021/03/13 12:01:14;;;;;;;19.55;17.27;;;;;;;16.52;46.22;94268.45;827349;71;32153;-77
2021/03/13 12:16:09;;;;;;;16.57;12.70;;;;;;;16.28;44.43;94258.08;833843;71;29355;-76
2021/03/13 12:31:15;;;;;;;9.50;8.45;;;;;;;16.40;43.72;94234.25;824075;71;32330;-78
2021/03/13 12:46:14;;;;;;;10.53;9.43;;;;;;;17.14;42.21;94224.91;828276;71;28684;-79
2021/03/13 13:01:11;;;;;;;8.88;7.90;;;;;;;17.45;40.84;94186.91;828255;71;30101;-78
2021/03/13 13:16:09;;;;;;;9.55;7.35;;;;;;;17.34;41.10;94188.72;828756;71;28693;-79
2021/03/13 13:31:09;;;;;;;8.55;7.62;;;;;;;17.41;40.77;94188.14;828303;71;28728;-79
2021/03/13 13:46:08;;;;;;;7.35;6.65;;;;;;;17.01;41.31;94192.91;828329;71;28719;-78
2021/03/13 14:01:08;;;;;;;7.20;6.60;;;;;;;16.29;42.49;94197.94;834053;71;28732;-77
2021/03/13 14:16:13;;;;;;;10.45;8.70;;;;;;;15.32;47.23;94211.91;828190;71;31002;-76
2021/03/13 14:31:09;;;;;;;13.22;11.03;;;;;;;14.57;49.42;94221.83;833812;71;30108;-78
2021/03/13 14:46:12;;;;;;;12.03;9.78;;;;;;;13.94;51.20;94214.45;828067;71;31105;-78
2021/03/13 15:01:32;;;;;;;13.05;10.90;;;;;;;13.51;52.85;94240.38;827729;71;29862;-78
2021/03/13 15:16:15;;;;;;;11.03;9.93;;;;;;;13.37;53.20;94247.13;827032;71;31700;-75
2021/03/13 15:31:13;;;;;;;11.88;9.95;;;;;;;13.10;54.51;94257.41;834245;71;31647;-77
2021/03/13 15:46:14;;;;;;;16.00;12.70;;;;;;;12.68;55.77;94254.39;833477;71;32340;-79
2021/03/13 16:01:09;;;;;;;11.08;9.43;;;;;;;12.29;56.80;94247.31;829199;71;28643;-78
2021/03/13 16:16:15;;;;;;;12.15;10.20;;;;;;;11.88;58.25;94244.38;833942;71;31822;-77
2021/03/13 17:02:03;;;;;;;;;;;;;;;;;;;;;
2021/03/13 17:16:38;;;;;;;;;;;;;;;;;;;;;
2021/03/13 17:31:27;;;;;;;29.95;20.62;;;;;;;9.65;65.71;94277.75;828490;71;32018;-82
2021/03/13 18:01:16;;;;;;;29.02;20.15;;;;;;;9.08;67.00;94267.34;829342;71;32059;-83
2021/03/13 18:16:23;;;;;;;28.70;19.57;;;;;;;8.88;68.01;94270.50;829240;70;32724;-84
2021/03/13 18:31:59;;;;;;;27.20;21.20;;;;;;;8.83;68.66;94278.41;810395;71;32790;-84
2021/03/13 21:31:53;;;;;;;31.48;22.55;;;;;;;7.40;72.67;94318.42;802646;74;32909;-86
2021/03/13 21:46:57;;;;;;;24.25;18.07;;;;;;;7.37;72.41;94318.98;830976;70;32781;-82
2021/03/13 22:17:04;;;;;;;;;;;;;;;;;;;;;
2021/03/13 22:46:50;;;;;;;24.82;19.00;;;;;;;6.77;73.68;94255.95;810253;72;32839;-84
2021/03/13 23:01:51;;;;;;;29.95;22.60;;;;;;;6.77;74.27;94252.54;835767;70;32841;-84
2021/03/13 23:16:59;;;;;;;32.42;23.02;;;;;;;6.68;73.98;94235.38;834002;71;32801;-84
2021/03/13 23:31:52;;;;;;;33.65;24.05;;;;;;;6.59;74.05;94228.66;826601;71;32847;-83
